sensor_id;sensor_type;location;lat;lon;timestamp;pressure;altitude;pressure_sealevel;temperature;humidity
22311;BME280;11323;49.610;11.016;2022-12-29T00:04:12;97739.09;;;13.27;70.53
22311;BME280;11323;49.610;11.016;2022-12-29T00:09:14;97746.78;;;13.28;70.67
22311;BME280;11323;49.610;11.016;2022-12-29T00:14:15;97740.72;;;13.28;70.09
22311;BME280;11323;49.610;11.016;2022-12-29T00:19:35;97743.34;;;13.28;70.31
22311;BME280;11323;49.610;11.016;2022-12-29T00:24:54;97733.22;;;13.25;70.66
22311;BME280;11323;49.610;11.016;2022-12-29T00:29:55;97731.44;;;13.17;70.19
22311;BME280;11323;49.610;11.016;2022-12-29T00:35:22;97727.66;;;13.20;70.45
22311;BME280;11323;49.610;11.016;2022-12-29T00:40:23;97724.25;;;13.19;71.01
22311;BME280;11323;49.610;11.016;2022-12-29T00:45:42;97717.19;;;13.20;70.63
22311;BME280;11323;49.610;11.016;2022-12-29T00:50:42;97719.16;;;13.18;70.93
22311;BME280;11323;49.610;11.016;2022-12-29T00:55:44;97722.63;;;13.18;71.64
22311;BME280;11323;49.610;11.016;2022-12-29T01:00:44;97713.31;;;13.16;71.43
22311;BME280;11323;49.610;11.016;2022-12-29T01:05:44;97708.69;;;13.18;71.43
22311;BME280;11323;49.610;11.016;2022-12-29T01:10:57;97704.31;;;13.18;71.22
22311;BME280;11323;49.610;11.016;2022-12-29T01:15:58;97695.81;;;13.16;71.34
22311;BME280;11323;49.610;11.016;2022-12-29T01:21:04;97700.84;;;13.18;70.97
22311;BME280;11323;49.610;11.016;2022-12-29T01:26:12;97692.38;;;13.16;71.48
22311;BME280;11323;49.610;11.016;2022-12-29T01:31:14;97678.81;;;13.12;71.33
22311;BME280;11323;49.610;11.016;2022-12-29T01:36:16;97666.56;;;13.12;70.90
22311;BME280;11323;49.610;11.016;2022-12-29T01:41:17;97679.63;;;13.12;71.36
22311;BME280;11323;49.610;11.016;2022-12-29T01:46:37;97676.03;;;13.13;71.10
22311;BME280;11323;49.610;11.016;2022-12-29T01:51:45;97665.72;;;13.12;71.48
22311;BME280;11323;49.610;11.016;2022-12-29T01:56:50;97660.66;;;13.10;71.47
22311;BME280;11323;49.610;11.016;2022-12-29T02:01:51;97658.41;;;13.07;71.34
22311;BME280;11323;49.610;11.016;2022-12-29T02:06:54;97663.63;;;13.07;71.02
22311;BME280;11323;49.610;11.016;2022-12-29T02:11:56;97669.50;;;13.09;70.98
22311;BME280;11323;49.610;11.016;2022-12-29T02:27:34;97648.44;;;13.03;71.28
22311;BME280;11323;49.610;11.016;2022-12-29T02:38:25;97657.28;;;13.02;70.86
22311;BME280;11323;49.610;11.016;2022-12-29T02:48:42;97651.44;;;13.00;71.41
22311;BME280;11323;49.610;11.016;2022-12-29T02:53:43;97655.03;;;12.98;71.40
22311;BME280;11323;49.610;11.016;2022-12-29T02:59:03;97649.94;;;12.97;71.75
22311;BME280;11323;49.610;11.016;2022-12-29T03:09:47;97635.56;;;13.01;71.34
22311;BME280;11323;49.610;11.016;2022-12-29T03:15:05;97624.25;;;13.01;71.82
22311;BME280;11323;49.610;11.016;2022-12-29T03:20:55;97629.66;;;12.99;71.84
22311;BME280;11323;49.610;11.016;2022-12-29T03:25:59;97614.03;;;12.91;72.03
22311;BME280;11323;49.610;11.016;2022-12-29T03:31:03;97618.94;;;12.94;71.99
22311;BME280;11323;49.610;11.016;2022-12-29T03:36:06;97618.22;;;13.00;71.72
22311;BME280;11323;49.610;11.016;2022-12-29T03:41:13;97623.47;;;13.00;71.56
22311;BME280;11323;49.610;11.016;2022-12-29T03:46:15;97612.19;;;13.00;71.13
22311;BME280;11323;49.610;11.016;2022-12-29T03:51:16;97613.19;;;12.98;71.89
22311;BME280;11323;49.610;11.016;2022-12-29T03:56:16;97615.16;;;12.96;71.57
22311;BME280;11323;49.610;11.016;2022-12-29T04:01:17;97614.97;;;12.98;71.56
22311;BME280;11323;49.610;11.016;2022-12-29T04:06:18;97620.19;;;12.98;71.71
22311;BME280;11323;49.610;11.016;2022-12-29T04:11:23;97617.56;;;12.98;72.01
22311;BME280;11323;49.610;11.016;2022-12-29T04:16:25;97625.44;;;12.98;72.41
22311;BME280;11323;49.610;11.016;2022-12-29T04:21:25;97632.63;;;12.96;72.22
22311;BME280;11323;49.610;11.016;2022-12-29T04:26:26;97630.84;;;12.96;72.06
22311;BME280;11323;49.610;11.016;2022-12-29T04:31:36;97623.78;;;12.97;72.36
22311;BME280;11323;49.610;11.016;2022-12-29T04:36:36;97624.16;;;12.94;71.47
22311;BME280;11323;49.610;11.016;2022-12-29T04:41:37;97621.34;;;12.95;71.38
22311;BME280;11323;49.610;11.016;2022-12-29T04:46:40;97625.75;;;12.95;72.19
22311;BME280;11323;49.610;11.016;2022-12-29T04:52:12;97624.97;;;12.94;72.50
22311;BME280;11323;49.610;11.016;2022-12-29T04:57:13;97612.06;;;12.93;72.15
22311;BME280;11323;49.610;11.016;2022-12-29T05:02:15;97624.16;;;12.94;72.42
22311;BME280;11323;49.610;11.016;2022-12-29T05:07:16;97628.75;;;12.92;71.81
22311;BME280;11323;49.610;11.016;2022-12-29T05:12:18;97643.44;;;12.93;71.93
22311;BME280;11323;49.610;11.016;2022-12-29T05:17:29;97621.53;;;12.94;72.03
22311;BME280;11323;49.610;11.016;2022-12-29T05:22:29;97631.50;;;12.90;71.85
22311;BME280;11323;49.610;11.016;2022-12-29T05:27:32;97621.22;;;12.89;71.91
22311;BME280;11323;49.610;11.016;2022-12-29T05:32:42;97600.63;;;12.86;72.16
22311;BME280;11323;49.610;11.016;2022-12-29T05:37:43;97596.72;;;12.90;71.98
22311;BME280;11323;49.610;11.016;2022-12-29T05:42:44;97610.78;;;12.89;71.79
22311;BME280;11323;49.610;11.016;2022-12-29T05:48:03;97606.53;;;12.88;72.02
22311;BME280;11323;49.610;11.016;2022-12-29T05:53:22;97598.84;;;12.86;71.53
22311;BME280;11323;49.610;11.016;2022-12-29T05:58:22;97612.41;;;12.90;71.37
22311;BME280;11323;49.610;11.016;2022-12-29T06:03:23;97608.34;;;12.87;72.23
22311;BME280;11323;49.610;11.016;2022-12-29T06:08:25;97606.53;;;12.88;72.01
22311;BME280;11323;49.610;11.016;2022-12-29T06:13:26;97611.09;;;12.86;72.07
22311;BME280;11323;49.610;11.016;2022-12-29T06:18:28;97602.28;;;12.87;71.98
22311;BME280;11323;49.610;11.016;2022-12-29T06:23:30;97593.78;;;12.85;71.95
22311;BME280;11323;49.610;11.016;2022-12-29T06:28:30;97592.16;;;12.83;71.99
22311;BME280;11323;49.610;11.016;2022-12-29T06:33:31;97617.69;;;12.81;72.05
22311;BME280;11323;49.610;11.016;2022-12-29T06:38:32;97622.72;;;12.83;71.78
22311;BME280;11323;49.610;11.016;2022-12-29T06:43:33;97612.59;;;12.80;71.95
22311;BME280;11323;49.610;11.016;2022-12-29T06:48:54;97625.16;;;12.85;71.87
22311;BME280;11323;49.610;11.016;2022-12-29T06:53:54;97621.94;;;12.82;71.68
22311;BME280;11323;49.610;11.016;2022-12-29T06:58:55;97611.63;;;12.81;72.35
22311;BME280;11323;49.610;11.016;2022-12-29T07:03:55;97605.59;;;12.80;71.89
22311;BME280;11323;49.610;11.016;2022-12-29T07:08:56;97609.00;;;12.81;71.93
22311;BME280;11323;49.610;11.016;2022-12-29T07:13:57;97612.44;;;12.81;71.61
22311;BME280;11323;49.610;11.016;2022-12-29T07:18:57;97630.75;;;12.81;72.51
22311;BME280;11323;49.610;11.016;2022-12-29T07:23:59;97641.56;;;12.78;71.98
22311;BME280;11323;49.610;11.016;2022-12-29T07:29:00;97641.38;;;12.80;72.62
22311;BME280;11323;49.610;11.016;2022-12-29T07:34:01;97644.16;;;12.78;71.97
22311;BME280;11323;49.610;11.016;2022-12-29T07:39:02;97637.94;;;12.79;72.11
22311;BME280;11323;49.610;11.016;2022-12-29T07:44:02;97633.38;;;12.73;72.58
22311;BME280;11323;49.610;11.016;2022-12-29T07:49:28;97646.44;;;12.81;71.96
22311;BME280;11323;49.610;11.016;2022-12-29T07:54:28;97641.22;;;12.81;72.51
22311;BME280;11323;49.610;11.016;2022-12-29T07:59:28;97641.22;;;12.81;72.49
22311;BME280;11323;49.610;11.016;2022-12-29T08:04:30;97639.88;;;12.86;72.20
22311;BME280;11323;49.610;11.016;2022-12-29T08:09:30;97641.34;;;12.88;72.02
22311;BME280;11323;49.610;11.016;2022-12-29T08:14:31;97650.66;;;12.91;73.03
22311;BME280;11323;49.610;11.016;2022-12-29T08:19:31;97656.03;;;12.89;72.68
22311;BME280;11323;49.610;11.016;2022-12-29T08:24:31;97662.75;;;12.92;72.83
22311;BME280;11323;49.610;11.016;2022-12-29T08:29:32;97654.72;;;12.93;72.61
22311;BME280;11323;49.610;11.016;2022-12-29T08:34:32;97641.97;;;12.90;72.14
22311;BME280;11323;49.610;11.016;2022-12-29T08:39:33;97640.47;;;12.96;73.03
22311;BME280;11323;49.610;11.016;2022-12-29T08:44:34;97637.56;;;12.91;72.83
22311;BME280;11323;49.610;11.016;2022-12-29T08:49:34;97655.03;;;12.98;72.83
22311;BME280;11323;49.610;11.016;2022-12-29T08:54:35;97644.06;;;12.95;72.50
22311;BME280;11323;49.610;11.016;2022-12-29T08:59:35;97647.97;;;12.99;72.60
22311;BME280;11323;49.610;11.016;2022-12-29T09:04:36;97647.00;;;13.00;72.73
22311;BME280;11323;49.610;11.016;2022-12-29T09:09:37;97656.81;;;12.98;72.73
22311;BME280;11323;49.610;11.016;2022-12-29T09:14:37;97659.44;;;12.98;73.36
22311;BME280;11323;49.610;11.016;2022-12-29T09:19:38;97658.44;;;12.99;72.87
22311;BME280;11323;49.610;11.016;2022-12-29T09:24:38;97656.47;;;13.01;73.40
22311;BME280;11323;49.610;11.016;2022-12-29T09:29:38;97659.75;;;13.03;72.82
22311;BME280;11323;49.610;11.016;2022-12-29T09:34:39;97653.16;;;13.07;72.93
22311;BME280;11323;49.610;11.016;2022-12-29T09:39:39;97654.97;;;13.07;72.86
22311;BME280;11323;49.610;11.016;2022-12-29T09:45:24;97654.00;;;13.08;72.52
22311;BME280;11323;49.610;11.016;2022-12-29T09:55:39;97646.94;;;13.08;73.26
22311;BME280;11323;49.610;11.016;2022-12-29T10:00:56;97640.06;;;13.07;72.73
22311;BME280;11323;49.610;11.016;2022-12-29T10:16:42;97632.59;;;13.04;72.90
22311;BME280;11323;49.610;11.016;2022-12-29T10:27:13;97628.94;;;13.13;72.86
22311;BME280;11323;49.610;11.016;2022-12-29T10:32:31;97619.47;;;13.12;72.87
22311;BME280;11323;49.610;11.016;2022-12-29T10:42:50;97619.28;;;13.14;73.17
22311;BME280;11323;49.610;11.016;2022-12-29T10:48:05;97601.94;;;13.13;72.57
22311;BME280;11323;49.610;11.016;2022-12-29T10:53:06;97598.34;;;13.14;72.15
22311;BME280;11323;49.610;11.016;2022-12-29T10:58:11;97590.09;;;13.02;72.78
22311;BME280;11323;49.610;11.016;2022-12-29T11:08:19;97604.41;;;13.15;72.21
22311;BME280;11323;49.610;11.016;2022-12-29T11:13:29;97593.94;;;13.15;72.18
22311;BME280;11323;49.610;11.016;2022-12-29T11:18:36;97584.63;;;13.12;72.58
22311;BME280;11323;49.610;11.016;2022-12-29T11:23:41;97599.19;;;13.15;73.11
22311;BME280;11323;49.610;11.016;2022-12-29T11:28:44;97594.63;;;13.08;72.83
22311;BME280;11323;49.610;11.016;2022-12-29T11:33:45;97603.25;;;13.17;72.39
22311;BME280;11323;49.610;11.016;2022-12-29T11:38:48;97605.50;;;13.20;72.31
22311;BME280;11323;49.610;11.016;2022-12-29T11:43:51;97597.22;;;13.17;72.39
22311;BME280;11323;49.610;11.016;2022-12-29T11:48:53;97616.44;;;13.24;72.36
22311;BME280;11323;49.610;11.016;2022-12-29T11:54:00;97622.66;;;13.23;72.71
22311;BME280;11323;49.610;11.016;2022-12-29T12:04:34;97623.31;;;13.25;72.93
22311;BME280;11323;49.610;11.016;2022-12-29T12:09:43;97615.47;;;13.25;73.13
22311;BME280;11323;49.610;11.016;2022-12-29T12:14:59;97610.22;;;13.25;72.35
22311;BME280;11323;49.610;11.016;2022-12-29T12:20:23;97606.63;;;13.26;72.74
22311;BME280;11323;49.610;11.016;2022-12-29T12:25:37;97617.09;;;13.26;73.13
22311;BME280;11323;49.610;11.016;2022-12-29T12:30:46;97600.41;;;13.27;72.80
22311;BME280;11323;49.610;11.016;2022-12-29T12:36:09;97617.09;;;13.26;72.38
22311;BME280;11323;49.610;11.016;2022-12-29T12:47:02;97618.72;;;13.27;72.29
22311;BME280;11323;49.610;11.016;2022-12-29T13:18:52;97623.25;;;13.33;72.29
22311;BME280;11323;49.610;11.016;2022-12-29T13:24:02;97631.41;;;13.38;72.52
22311;BME280;11323;49.610;11.016;2022-12-29T13:29:16;97621.91;;;13.37;72.25
22311;BME280;11323;49.610;11.016;2022-12-29T13:34:39;97624.53;;;13.37;72.24
22311;BME280;11323;49.610;11.016;2022-12-29T13:39:47;97619.47;;;13.36;72.20
22311;BME280;11323;49.610;11.016;2022-12-29T13:45:05;97617.66;;;13.36;72.02
22311;BME280;11323;49.610;11.016;2022-12-29T13:50:19;97619.31;;;13.37;72.85
22311;BME280;11323;49.610;11.016;2022-12-29T13:55:31;97633.19;;;13.38;72.53
22311;BME280;11323;49.610;11.016;2022-12-29T14:01:19;97641.88;;;13.38;72.23
22311;BME280;11323;49.610;11.016;2022-12-29T14:06:32;97636.63;;;13.38;72.50
22311;BME280;11323;49.610;11.016;2022-12-29T14:11:39;97650.38;;;13.40;72.23
22311;BME280;11323;49.610;11.016;2022-12-29T14:16:41;97640.72;;;13.41;72.00
22311;BME280;11323;49.610;11.016;2022-12-29T14:21:57;97638.59;;;13.36;72.56
22311;BME280;11323;49.610;11.016;2022-12-29T14:26:58;97650.22;;;13.42;71.91
22311;BME280;11323;49.610;11.016;2022-12-29T14:31:59;97648.06;;;13.46;71.93
22311;BME280;11323;49.610;11.016;2022-12-29T14:37:00;97644.78;;;13.43;72.86
22311;BME280;11323;49.610;11.016;2022-12-29T14:42:21;97629.91;;;13.44;71.99
22311;BME280;11323;49.610;11.016;2022-12-29T14:52:31;97625.47;;;13.44;72.24
22311;BME280;11323;49.610;11.016;2022-12-29T14:57:39;97643.63;;;13.46;72.54
22311;BME280;11323;49.610;11.016;2022-12-29T15:02:45;97646.44;;;13.44;72.13
22311;BME280;11323;49.610;11.016;2022-12-29T15:07:46;97635.97;;;13.44;71.48
22311;BME280;11323;49.610;11.016;2022-12-29T15:12:52;97636.94;;;13.43;72.00
22311;BME280;11323;49.610;11.016;2022-12-29T15:17:53;97637.59;;;13.46;71.84
22311;BME280;11323;49.610;11.016;2022-12-29T15:23:12;97648.06;;;13.46;71.98
22311;BME280;11323;49.610;11.016;2022-12-29T15:28:17;97653.28;;;13.46;72.26
22311;BME280;11323;49.610;11.016;2022-12-29T15:33:18;97648.06;;;13.46;71.93
22311;BME280;11323;49.610;11.016;2022-12-29T15:38:28;97627.81;;;13.39;71.96
22311;BME280;11323;49.610;11.016;2022-12-29T15:48:38;97642.63;;;13.47;71.42
22311;BME280;11323;49.610;11.016;2022-12-29T15:53:39;97640.19;;;13.46;71.95
22311;BME280;11323;49.610;11.016;2022-12-29T15:58:48;97630.38;;;13.48;72.43
22311;BME280;11323;49.610;11.016;2022-12-29T16:03:51;97630.38;;;13.48;71.64
22311;BME280;11323;49.610;11.016;2022-12-29T16:08:56;97632.69;;;13.42;72.30
22311;BME280;11323;49.610;11.016;2022-12-29T16:13:57;97650.50;;;13.47;71.80
22311;BME280;11323;49.610;11.016;2022-12-29T16:18:58;97644.16;;;13.41;71.77
22311;BME280;11323;49.610;11.016;2022-12-29T16:24:05;97656.56;;;13.48;71.84
22311;BME280;11323;49.610;11.016;2022-12-29T16:29:07;97656.56;;;13.48;72.04
22311;BME280;11323;49.610;11.016;2022-12-29T16:34:26;97670.28;;;13.50;71.76
22311;BME280;11323;49.610;11.016;2022-12-29T16:39:38;97666.69;;;13.51;71.76
22311;BME280;11323;49.610;11.016;2022-12-29T16:44:41;97666.69;;;13.51;71.82
22311;BME280;11323;49.610;11.016;2022-12-29T16:49:48;97679.78;;;13.51;71.90
22311;BME280;11323;49.610;11.016;2022-12-29T16:54:53;97684.19;;;13.50;71.75
22311;BME280;11323;49.610;11.016;2022-12-29T16:59:58;97693.66;;;13.51;71.85
22311;BME280;11323;49.610;11.016;2022-12-29T17:04:59;97710.16;;;13.52;71.91
22311;BME280;11323;49.610;11.016;2022-12-29T17:10:00;97714.28;;;13.54;72.01
22311;BME280;11323;49.610;11.016;2022-12-29T17:15:21;97715.91;;;13.55;71.39
22311;BME280;11323;49.610;11.016;2022-12-29T17:20:27;97721.94;;;13.56;71.94
22311;BME280;11323;49.610;11.016;2022-12-29T17:25:32;97726.19;;;13.57;72.33
22311;BME280;11323;49.610;11.016;2022-12-29T17:30:34;97733.25;;;13.56;72.37
22311;BME280;11323;49.610;11.016;2022-12-29T17:35:35;97744.34;;;13.58;71.83
22311;BME280;11323;49.610;11.016;2022-12-29T17:40:35;97764.28;;;13.59;72.11
22311;BME280;11323;49.610;11.016;2022-12-29T17:45:38;97785.25;;;13.59;71.66
22311;BME280;11323;49.610;11.016;2022-12-29T17:50:39;97724.22;;;13.59;71.90
22311;BME280;11323;49.610;11.016;2022-12-29T17:55:41;97712.25;;;13.65;71.83
22311;BME280;11323;49.610;11.016;2022-12-29T18:00:41;97712.34;;;13.71;71.65
22311;BME280;11323;49.610;11.016;2022-12-29T18:05:42;97703.84;;;13.69;71.87
22311;BME280;11323;49.610;11.016;2022-12-29T18:10:44;97705.19;;;13.65;71.48
22311;BME280;11323;49.610;11.016;2022-12-29T18:15:45;97749.66;;;13.73;71.77
22311;BME280;11323;49.610;11.016;2022-12-29T18:20:47;97754.53;;;13.77;71.64
22311;BME280;11323;49.610;11.016;2022-12-29T18:26:00;97746.22;;;13.73;72.11
22311;BME280;11323;49.610;11.016;2022-12-29T18:31:01;97755.81;;;13.81;71.57
22311;BME280;11323;49.610;11.016;2022-12-29T18:36:03;97758.59;;;13.79;72.45
22311;BME280;11323;49.610;11.016;2022-12-29T18:41:05;97772.47;;;13.88;72.43
22311;BME280;11323;49.610;11.016;2022-12-29T18:46:09;97765.91;;;13.92;72.30
22311;BME280;11323;49.610;11.016;2022-12-29T18:51:21;97760.31;;;13.95;73.22
22311;BME280;11323;49.610;11.016;2022-12-29T18:56:23;97761.31;;;13.94;72.81
22311;BME280;11323;49.610;11.016;2022-12-29T19:01:25;97762.00;;;13.88;72.59
22311;BME280;11323;49.610;11.016;2022-12-29T19:06:30;97772.94;;;13.92;73.08
22311;BME280;11323;49.610;11.016;2022-12-29T19:11:30;97773.75;;;13.92;72.78
22311;BME280;11323;49.610;11.016;2022-12-29T19:16:30;97776.03;;;13.95;72.60
22311;BME280;11323;49.610;11.016;2022-12-29T19:21:32;97773.75;;;13.92;72.34
22311;BME280;11323;49.610;11.016;2022-12-29T19:26:34;97775.50;;;14.00;72.48
22311;BME280;11323;49.610;11.016;2022-12-29T19:31:36;97775.63;;;14.07;72.75
22311;BME280;11323;49.610;11.016;2022-12-29T19:36:36;97774.44;;;14.09;72.61
22311;BME280;11323;49.610;11.016;2022-12-29T19:41:37;97772.94;;;14.15;73.09
22311;BME280;11323;49.610;11.016;2022-12-29T19:46:37;97782.25;;;14.17;72.91
22311;BME280;11323;49.610;11.016;2022-12-29T19:51:38;97781.06;;;14.20;72.79
22311;BME280;11323;49.610;11.016;2022-12-29T19:56:38;97790.75;;;14.19;73.05
22311;BME280;11323;49.610;11.016;2022-12-29T20:01:42;97791.28;;;14.15;72.51
22311;BME280;11323;49.610;11.016;2022-12-29T20:06:42;97800.78;;;14.16;72.43
22311;BME280;11323;49.610;11.016;2022-12-29T20:11:42;97780.16;;;14.13;71.74
22311;BME280;11323;49.610;11.016;2022-12-29T20:16:43;97762.97;;;14.10;72.05
22311;BME280;11323;49.610;11.016;2022-12-29T20:21:43;97746.63;;;14.08;71.27
22311;BME280;11323;49.610;11.016;2022-12-29T20:26:44;97759.91;;;14.07;71.64
22311;BME280;11323;49.610;11.016;2022-12-29T20:31:44;97771.00;;;14.09;71.15
22311;BME280;11323;49.610;11.016;2022-12-29T20:36:47;97777.22;;;14.08;71.58
22311;BME280;11323;49.610;11.016;2022-12-29T20:41:47;97773.00;;;14.07;71.23
22311;BME280;11323;49.610;11.016;2022-12-29T20:46:48;97773.00;;;14.07;70.79
22311;BME280;11323;49.610;11.016;2022-12-29T20:51:48;97771.53;;;14.04;70.94
22311;BME280;11323;49.610;11.016;2022-12-29T20:56:49;97771.72;;;14.02;70.51
22311;BME280;11323;49.610;11.016;2022-12-29T21:01:49;97768.44;;;14.00;71.02
22311;BME280;11323;49.610;11.016;2022-12-29T21:06:50;97773.03;;;13.98;70.41
22311;BME280;11323;49.610;11.016;2022-12-29T21:11:50;97791.38;;;13.98;70.24
22311;BME280;11323;49.610;11.016;2022-12-29T21:16:50;97793.72;;;13.93;70.95
22311;BME280;11323;49.610;11.016;2022-12-29T21:21:51;97792.88;;;14.01;70.62
22311;BME280;11323;49.610;11.016;2022-12-29T21:26:52;97793.66;;;14.01;70.75
22311;BME280;11323;49.610;11.016;2022-12-29T21:31:52;97804.94;;;14.02;70.66
22311;BME280;11323;49.610;11.016;2022-12-29T21:36:53;97799.56;;;14.03;70.73
22311;BME280;11323;49.610;11.016;2022-12-29T21:41:53;97795.28;;;14.02;70.44
22311;BME280;11323;49.610;11.016;2022-12-29T21:46:59;97784.81;;;14.02;70.47
22311;BME280;11323;49.610;11.016;2022-12-29T21:51:59;97824.13;;;14.02;70.47
22311;BME280;11323;49.610;11.016;2022-12-29T21:57:00;97829.03;;;14.05;70.57
22311;BME280;11323;49.610;11.016;2022-12-29T22:02:02;97823.47;;;14.00;70.36
22311;BME280;11323;49.610;11.016;2022-12-29T22:07:22;97831.47;;;14.07;70.69
22311;BME280;11323;49.610;11.016;2022-12-29T22:12:40;97832.31;;;13.99;70.39
22311;BME280;11323;49.610;11.016;2022-12-29T22:18:00;97846.19;;;14.08;70.67
22311;BME280;11323;49.610;11.016;2022-12-29T22:23:01;97846.38;;;14.07;70.87
22311;BME280;11323;49.610;11.016;2022-12-29T22:28:02;97842.75;;;14.08;70.36
22311;BME280;11323;49.610;11.016;2022-12-29T22:33:02;97850.97;;;14.04;70.39
22311;BME280;11323;49.610;11.016;2022-12-29T22:38:03;97860.63;;;14.04;70.54
22311;BME280;11323;49.610;11.016;2022-12-29T22:43:03;97854.56;;;14.03;70.11
22311;BME280;11323;49.610;11.016;2022-12-29T22:48:04;97852.94;;;14.02;70.40
22311;BME280;11323;49.610;11.016;2022-12-29T22:53:05;97860.97;;;14.01;70.09
22311;BME280;11323;49.610;11.016;2022-12-29T22:58:05;97856.09;;;13.98;70.42
22311;BME280;11323;49.610;11.016;2022-12-29T23:03:06;97864.75;;;13.98;70.18
22311;BME280;11323;49.610;11.016;2022-12-29T23:08:06;97884.72;;;13.99;70.19
22311;BME280;11323;49.610;11.016;2022-12-29T23:13:06;97869.19;;;13.98;69.88
22311;BME280;11323;49.610;11.016;2022-12-29T23:18:07;97869.34;;;13.96;69.99
22311;BME280;11323;49.610;11.016;2022-12-29T23:23:07;97895.44;;;13.89;70.23
22311;BME280;11323;49.610;11.016;2022-12-29T23:28:08;97896.25;;;13.90;69.80
22311;BME280;11323;49.610;11.016;2022-12-29T23:33:08;97890.69;;;13.85;70.00
22311;BME280;11323;49.610;11.016;2022-12-29T23:38:08;97893.94;;;13.87;69.80
22311;BME280;11323;49.610;11.016;2022-12-29T23:43:09;97890.88;;;13.83;70.32
22311;BME280;11323;49.610;11.016;2022-12-29T23:48:09;97907.41;;;13.84;70.07
22311;BME280;11323;49.610;11.016;2022-12-29T23:53:10;97899.56;;;13.75;70.19
22311;BME280;11323;49.610;11.016;2022-12-29T23:58:10;97914.16;;;13.78;70.43
